sensor_id;sensor_type;location;lat;lon;timestamp;P1;durP1;ratioP1;P2;durP2;ratioP2
29908;SDS011;36247;51.952;6.146;2023-05-31T00:01:26;11.55;;;7.07;;
29908;SDS011;36247;51.952;6.146;2023-05-31T00:03:51;9.52;;;5.90;;
29908;SDS011;36247;51.952;6.146;2023-05-31T00:06:17;8.13;;;5.70;;
29908;SDS011;36247;51.952;6.146;2023-05-31T00:08:42;14.38;;;6.30;;
29908;SDS011;36247;51.952;6.146;2023-05-31T00:11:09;6.47;;;5.78;;
29908;SDS011;36247;51.952;6.146;2023-05-31T00:13:34;8.57;;;6.55;;
29908;SDS011;36247;51.952;6.146;2023-05-31T00:16:00;8.02;;;5.97;;
29908;SDS011;36247;51.952;6.146;2023-05-31T00:18:26;9.93;;;6.45;;
29908;SDS011;36247;51.952;6.146;2023-05-31T00:20:51;11.10;;;5.72;;
29908;SDS011;36247;51.952;6.146;2023-05-31T00:23:17;9.13;;;6.32;;
29908;SDS011;36247;51.952;6.146;2023-05-31T00:25:42;11.30;;;5.93;;
29908;SDS011;36247;51.952;6.146;2023-05-31T00:28:09;9.40;;;6.57;;
29908;SDS011;36247;51.952;6.146;2023-05-31T00:30:35;13.50;;;6.63;;
29908;SDS011;36247;51.952;6.146;2023-05-31T00:33:00;8.93;;;5.45;;
29908;SDS011;36247;51.952;6.146;2023-05-31T00:35:26;10.20;;;6.35;;
29908;SDS011;36247;51.952;6.146;2023-05-31T00:37:52;8.48;;;6.50;;
29908;SDS011;36247;51.952;6.146;2023-05-31T00:40:21;10.50;;;6.13;;
29908;SDS011;36247;51.952;6.146;2023-05-31T00:42:51;8.93;;;6.35;;
29908;SDS011;36247;51.952;6.146;2023-05-31T00:45:17;10.77;;;7.00;;
29908;SDS011;36247;51.952;6.146;2023-05-31T00:47:42;10.93;;;6.15;;
29908;SDS011;36247;51.952;6.146;2023-05-31T00:50:09;12.23;;;6.72;;
29908;SDS011;36247;51.952;6.146;2023-05-31T00:52:35;10.27;;;6.30;;
29908;SDS011;36247;51.952;6.146;2023-05-31T00:55:02;10.13;;;6.72;;
29908;SDS011;36247;51.952;6.146;2023-05-31T00:57:28;12.52;;;6.68;;
29908;SDS011;36247;51.952;6.146;2023-05-31T00:59:54;12.90;;;6.97;;
29908;SDS011;36247;51.952;6.146;2023-05-31T01:02:20;10.40;;;6.38;;
29908;SDS011;36247;51.952;6.146;2023-05-31T01:04:47;11.27;;;6.85;;
29908;SDS011;36247;51.952;6.146;2023-05-31T01:07:17;9.23;;;6.47;;
29908;SDS011;36247;51.952;6.146;2023-05-31T01:09:42;11.88;;;7.30;;
29908;SDS011;36247;51.952;6.146;2023-05-31T01:15:06;9.00;;;7.05;;
29908;SDS011;36247;51.952;6.146;2023-05-31T01:20:24;13.05;;;7.53;;
29908;SDS011;36247;51.952;6.146;2023-05-31T01:28:05;13.18;;;7.22;;
29908;SDS011;36247;51.952;6.146;2023-05-31T01:30:37;12.43;;;7.47;;
29908;SDS011;36247;51.952;6.146;2023-05-31T01:33:09;10.25;;;6.78;;
29908;SDS011;36247;51.952;6.146;2023-05-31T01:35:38;10.82;;;7.32;;
29908;SDS011;36247;51.952;6.146;2023-05-31T01:38:04;10.93;;;7.78;;
29908;SDS011;36247;51.952;6.146;2023-05-31T01:40:32;14.20;;;7.60;;
29908;SDS011;36247;51.952;6.146;2023-05-31T01:43:00;12.93;;;7.80;;
29908;SDS011;36247;51.952;6.146;2023-05-31T01:45:26;12.73;;;7.85;;
29908;SDS011;36247;51.952;6.146;2023-05-31T01:47:59;11.85;;;7.82;;
29908;SDS011;36247;51.952;6.146;2023-05-31T01:50:27;11.13;;;7.18;;
29908;SDS011;36247;51.952;6.146;2023-05-31T01:52:53;14.32;;;8.30;;
29908;SDS011;36247;51.952;6.146;2023-05-31T01:55:19;11.95;;;8.23;;
29908;SDS011;36247;51.952;6.146;2023-05-31T01:57:46;13.63;;;8.82;;
29908;SDS011;36247;51.952;6.146;2023-05-31T02:00:13;18.33;;;8.65;;
29908;SDS011;36247;51.952;6.146;2023-05-31T02:02:41;13.20;;;7.90;;
29908;SDS011;36247;51.952;6.146;2023-05-31T02:05:09;12.32;;;7.32;;
29908;SDS011;36247;51.952;6.146;2023-05-31T02:07:38;13.43;;;7.25;;
29908;SDS011;36247;51.952;6.146;2023-05-31T02:10:08;14.52;;;8.57;;
29908;SDS011;36247;51.952;6.146;2023-05-31T02:12:38;10.80;;;7.53;;
29908;SDS011;36247;51.952;6.146;2023-05-31T02:15:05;11.38;;;7.88;;
29908;SDS011;36247;51.952;6.146;2023-05-31T02:17:40;13.82;;;8.00;;
29908;SDS011;36247;51.952;6.146;2023-05-31T02:20:11;16.35;;;8.82;;
29908;SDS011;36247;51.952;6.146;2023-05-31T02:22:41;11.95;;;8.60;;
29908;SDS011;36247;51.952;6.146;2023-05-31T02:25:11;14.77;;;9.73;;
29908;SDS011;36247;51.952;6.146;2023-05-31T02:27:43;14.13;;;8.52;;
29908;SDS011;36247;51.952;6.146;2023-05-31T02:30:09;11.50;;;7.88;;
29908;SDS011;36247;51.952;6.146;2023-05-31T02:32:35;12.98;;;8.77;;
29908;SDS011;36247;51.952;6.146;2023-05-31T02:35:03;14.15;;;8.40;;
29908;SDS011;36247;51.952;6.146;2023-05-31T02:37:31;14.73;;;7.50;;
29908;SDS011;36247;51.952;6.146;2023-05-31T02:39:58;13.90;;;8.35;;
29908;SDS011;36247;51.952;6.146;2023-05-31T02:42:23;14.00;;;8.55;;
29908;SDS011;36247;51.952;6.146;2023-05-31T02:44:49;14.02;;;9.02;;
29908;SDS011;36247;51.952;6.146;2023-05-31T02:47:15;17.33;;;8.57;;
29908;SDS011;36247;51.952;6.146;2023-05-31T02:49:42;14.75;;;8.57;;
29908;SDS011;36247;51.952;6.146;2023-05-31T02:52:08;19.17;;;9.35;;
29908;SDS011;36247;51.952;6.146;2023-05-31T02:54:52;14.65;;;8.93;;
29908;SDS011;36247;51.952;6.146;2023-05-31T02:57:23;13.45;;;8.95;;
29908;SDS011;36247;51.952;6.146;2023-05-31T02:59:48;15.50;;;8.93;;
29908;SDS011;36247;51.952;6.146;2023-05-31T03:02:17;16.15;;;9.35;;
29908;SDS011;36247;51.952;6.146;2023-05-31T03:05:09;17.05;;;9.48;;
29908;SDS011;36247;51.952;6.146;2023-05-31T03:07:37;16.13;;;9.43;;
29908;SDS011;36247;51.952;6.146;2023-05-31T03:10:04;17.48;;;9.95;;
29908;SDS011;36247;51.952;6.146;2023-05-31T03:12:30;15.38;;;9.55;;
29908;SDS011;36247;51.952;6.146;2023-05-31T03:14:56;14.45;;;9.77;;
29908;SDS011;36247;51.952;6.146;2023-05-31T03:17:22;15.18;;;9.23;;
29908;SDS011;36247;51.952;6.146;2023-05-31T03:19:48;15.15;;;9.77;;
29908;SDS011;36247;51.952;6.146;2023-05-31T03:22:13;14.07;;;8.73;;
29908;SDS011;36247;51.952;6.146;2023-05-31T03:24:40;17.20;;;10.73;;
29908;SDS011;36247;51.952;6.146;2023-05-31T03:27:13;18.95;;;9.55;;
29908;SDS011;36247;51.952;6.146;2023-05-31T03:29:40;18.23;;;9.80;;
29908;SDS011;36247;51.952;6.146;2023-05-31T03:32:08;16.42;;;9.35;;
29908;SDS011;36247;51.952;6.146;2023-05-31T03:34:34;19.50;;;10.93;;
29908;SDS011;36247;51.952;6.146;2023-05-31T03:37:00;20.83;;;10.35;;
29908;SDS011;36247;51.952;6.146;2023-05-31T03:39:39;16.00;;;9.98;;
29908;SDS011;36247;51.952;6.146;2023-05-31T03:42:08;15.55;;;9.80;;
29908;SDS011;36247;51.952;6.146;2023-05-31T03:44:34;17.38;;;10.70;;
29908;SDS011;36247;51.952;6.146;2023-05-31T03:47:00;17.00;;;10.05;;
29908;SDS011;36247;51.952;6.146;2023-05-31T03:49:26;17.48;;;10.05;;
29908;SDS011;36247;51.952;6.146;2023-05-31T03:51:52;20.90;;;11.93;;
29908;SDS011;36247;51.952;6.146;2023-05-31T03:54:18;17.23;;;9.65;;
29908;SDS011;36247;51.952;6.146;2023-05-31T03:56:43;20.58;;;10.35;;
29908;SDS011;36247;51.952;6.146;2023-05-31T03:59:09;19.13;;;11.10;;
29908;SDS011;36247;51.952;6.146;2023-05-31T04:01:35;21.35;;;11.80;;
29908;SDS011;36247;51.952;6.146;2023-05-31T04:04:04;20.20;;;11.18;;
29908;SDS011;36247;51.952;6.146;2023-05-31T04:06:30;16.30;;;10.73;;
29908;SDS011;36247;51.952;6.146;2023-05-31T04:08:55;16.38;;;10.93;;
29908;SDS011;36247;51.952;6.146;2023-05-31T04:11:21;17.73;;;11.13;;
29908;SDS011;36247;51.952;6.146;2023-05-31T04:13:48;21.60;;;11.65;;
29908;SDS011;36247;51.952;6.146;2023-05-31T04:16:14;21.25;;;11.45;;
29908;SDS011;36247;51.952;6.146;2023-05-31T04:18:41;21.48;;;11.90;;
29908;SDS011;36247;51.952;6.146;2023-05-31T04:21:08;19.33;;;11.32;;
29908;SDS011;36247;51.952;6.146;2023-05-31T04:23:34;22.17;;;12.00;;
29908;SDS011;36247;51.952;6.146;2023-05-31T04:26:02;20.80;;;12.45;;
29908;SDS011;36247;51.952;6.146;2023-05-31T04:28:28;20.27;;;12.52;;
29908;SDS011;36247;51.952;6.146;2023-05-31T04:30:56;20.10;;;12.52;;
29908;SDS011;36247;51.952;6.146;2023-05-31T04:33:23;19.65;;;12.13;;
29908;SDS011;36247;51.952;6.146;2023-05-31T04:35:49;25.92;;;12.50;;
29908;SDS011;36247;51.952;6.146;2023-05-31T04:38:16;20.77;;;11.93;;
29908;SDS011;36247;51.952;6.146;2023-05-31T04:40:43;23.52;;;12.90;;
29908;SDS011;36247;51.952;6.146;2023-05-31T04:43:09;22.88;;;12.30;;
29908;SDS011;36247;51.952;6.146;2023-05-31T04:45:35;21.88;;;12.45;;
29908;SDS011;36247;51.952;6.146;2023-05-31T04:48:01;25.65;;;13.32;;
29908;SDS011;36247;51.952;6.146;2023-05-31T04:50:28;23.60;;;12.48;;
29908;SDS011;36247;51.952;6.146;2023-05-31T04:52:54;22.08;;;13.30;;
29908;SDS011;36247;51.952;6.146;2023-05-31T04:55:19;31.85;;;14.55;;
29908;SDS011;36247;51.952;6.146;2023-05-31T04:57:45;23.02;;;13.48;;
29908;SDS011;36247;51.952;6.146;2023-05-31T05:00:13;22.63;;;13.93;;
29908;SDS011;36247;51.952;6.146;2023-05-31T05:03:00;25.80;;;14.93;;
29908;SDS011;36247;51.952;6.146;2023-05-31T05:05:26;25.65;;;14.38;;
29908;SDS011;36247;51.952;6.146;2023-05-31T05:07:52;25.00;;;13.48;;
29908;SDS011;36247;51.952;6.146;2023-05-31T05:10:21;24.58;;;14.57;;
29908;SDS011;36247;51.952;6.146;2023-05-31T05:12:46;26.25;;;14.95;;
29908;SDS011;36247;51.952;6.146;2023-05-31T05:15:14;24.98;;;14.52;;
29908;SDS011;36247;51.952;6.146;2023-05-31T05:17:41;27.48;;;14.77;;
29908;SDS011;36247;51.952;6.146;2023-05-31T05:20:09;28.25;;;14.82;;
29908;SDS011;36247;51.952;6.146;2023-05-31T05:22:36;26.27;;;16.30;;
29908;SDS011;36247;51.952;6.146;2023-05-31T05:25:04;27.13;;;16.15;;
29908;SDS011;36247;51.952;6.146;2023-05-31T05:27:30;28.27;;;16.23;;
29908;SDS011;36247;51.952;6.146;2023-05-31T05:29:59;34.80;;;17.02;;
29908;SDS011;36247;51.952;6.146;2023-05-31T05:32:25;26.77;;;15.38;;
29908;SDS011;36247;51.952;6.146;2023-05-31T05:34:50;29.27;;;16.92;;
29908;SDS011;36247;51.952;6.146;2023-05-31T05:37:16;26.48;;;16.17;;
29908;SDS011;36247;51.952;6.146;2023-05-31T05:39:42;34.78;;;16.50;;
29908;SDS011;36247;51.952;6.146;2023-05-31T05:42:10;25.75;;;17.10;;
29908;SDS011;36247;51.952;6.146;2023-05-31T05:44:38;27.48;;;16.45;;
29908;SDS011;36247;51.952;6.146;2023-05-31T05:47:04;30.33;;;17.70;;
29908;SDS011;36247;51.952;6.146;2023-05-31T05:49:30;33.67;;;17.67;;
29908;SDS011;36247;51.952;6.146;2023-05-31T05:51:56;30.02;;;17.20;;
29908;SDS011;36247;51.952;6.146;2023-05-31T05:54:23;29.27;;;17.35;;
29908;SDS011;36247;51.952;6.146;2023-05-31T05:56:49;34.20;;;17.60;;
29908;SDS011;36247;51.952;6.146;2023-05-31T05:59:15;33.33;;;18.50;;
29908;SDS011;36247;51.952;6.146;2023-05-31T06:02:09;37.75;;;17.75;;
29908;SDS011;36247;51.952;6.146;2023-05-31T06:04:36;39.25;;;18.55;;
29908;SDS011;36247;51.952;6.146;2023-05-31T06:07:04;28.27;;;17.48;;
29908;SDS011;36247;51.952;6.146;2023-05-31T06:09:29;32.13;;;18.20;;
29908;SDS011;36247;51.952;6.146;2023-05-31T06:11:55;34.38;;;17.65;;
29908;SDS011;36247;51.952;6.146;2023-05-31T06:14:24;27.17;;;17.13;;
29908;SDS011;36247;51.952;6.146;2023-05-31T06:16:50;29.73;;;16.77;;
29908;SDS011;36247;51.952;6.146;2023-05-31T06:19:16;31.35;;;17.08;;
29908;SDS011;36247;51.952;6.146;2023-05-31T06:21:42;31.35;;;16.95;;
29908;SDS011;36247;51.952;6.146;2023-05-31T06:24:10;30.90;;;18.98;;
29908;SDS011;36247;51.952;6.146;2023-05-31T06:26:36;31.23;;;17.52;;
29908;SDS011;36247;51.952;6.146;2023-05-31T06:29:04;33.53;;;17.88;;
29908;SDS011;36247;51.952;6.146;2023-05-31T06:31:48;28.90;;;16.85;;
29908;SDS011;36247;51.952;6.146;2023-05-31T06:34:15;30.50;;;17.05;;
29908;SDS011;36247;51.952;6.146;2023-05-31T06:36:41;29.27;;;16.20;;
29908;SDS011;36247;51.952;6.146;2023-05-31T06:39:09;29.30;;;17.67;;
29908;SDS011;36247;51.952;6.146;2023-05-31T06:41:35;26.35;;;15.43;;
29908;SDS011;36247;51.952;6.146;2023-05-31T06:44:24;24.98;;;15.00;;
29908;SDS011;36247;51.952;6.146;2023-05-31T06:47:04;26.88;;;16.55;;
29908;SDS011;36247;51.952;6.146;2023-05-31T06:49:55;23.70;;;14.27;;
29908;SDS011;36247;51.952;6.146;2023-05-31T06:52:55;26.85;;;16.05;;
29908;SDS011;36247;51.952;6.146;2023-05-31T06:55:36;26.42;;;15.73;;
29908;SDS011;36247;51.952;6.146;2023-05-31T06:58:05;27.30;;;15.13;;
29908;SDS011;36247;51.952;6.146;2023-05-31T07:00:34;27.55;;;14.93;;
29908;SDS011;36247;51.952;6.146;2023-05-31T07:03:00;25.20;;;14.93;;
29908;SDS011;36247;51.952;6.146;2023-05-31T07:05:28;27.40;;;14.80;;
29908;SDS011;36247;51.952;6.146;2023-05-31T07:07:57;30.45;;;16.15;;
29908;SDS011;36247;51.952;6.146;2023-05-31T07:10:23;21.40;;;13.77;;
29908;SDS011;36247;51.952;6.146;2023-05-31T07:12:50;29.60;;;14.60;;
29908;SDS011;36247;51.952;6.146;2023-05-31T07:15:16;22.30;;;13.75;;
29908;SDS011;36247;51.952;6.146;2023-05-31T07:17:42;26.48;;;14.57;;
29908;SDS011;36247;51.952;6.146;2023-05-31T07:20:09;27.35;;;14.38;;
29908;SDS011;36247;51.952;6.146;2023-05-31T07:22:38;24.30;;;13.50;;
29908;SDS011;36247;51.952;6.146;2023-05-31T07:25:04;25.92;;;12.95;;
29908;SDS011;36247;51.952;6.146;2023-05-31T07:27:30;25.95;;;13.63;;
29908;SDS011;36247;51.952;6.146;2023-05-31T07:29:56;21.67;;;13.80;;
29908;SDS011;36247;51.952;6.146;2023-05-31T07:32:23;23.48;;;14.45;;
29908;SDS011;36247;51.952;6.146;2023-05-31T07:34:50;20.58;;;13.07;;
29908;SDS011;36247;51.952;6.146;2023-05-31T07:37:16;27.52;;;13.52;;
29908;SDS011;36247;51.952;6.146;2023-05-31T07:39:44;21.98;;;12.00;;
29908;SDS011;36247;51.952;6.146;2023-05-31T07:42:09;24.35;;;13.00;;
29908;SDS011;36247;51.952;6.146;2023-05-31T07:44:35;23.67;;;12.30;;
29908;SDS011;36247;51.952;6.146;2023-05-31T07:47:03;30.60;;;13.90;;
29908;SDS011;36247;51.952;6.146;2023-05-31T07:49:34;22.98;;;12.70;;
29908;SDS011;36247;51.952;6.146;2023-05-31T07:52:00;22.23;;;13.38;;
29908;SDS011;36247;51.952;6.146;2023-05-31T07:54:26;19.63;;;12.95;;
29908;SDS011;36247;51.952;6.146;2023-05-31T07:56:52;20.67;;;13.15;;
29908;SDS011;36247;51.952;6.146;2023-05-31T07:59:17;21.48;;;12.32;;
29908;SDS011;36247;51.952;6.146;2023-05-31T08:01:43;21.95;;;12.65;;
29908;SDS011;36247;51.952;6.146;2023-05-31T08:04:10;22.20;;;11.40;;
29908;SDS011;36247;51.952;6.146;2023-05-31T08:06:40;21.65;;;12.82;;
29908;SDS011;36247;51.952;6.146;2023-05-31T08:09:10;18.63;;;12.15;;
29908;SDS011;36247;51.952;6.146;2023-05-31T08:11:36;20.88;;;11.77;;
29908;SDS011;36247;51.952;6.146;2023-05-31T08:14:04;19.42;;;12.45;;
29908;SDS011;36247;51.952;6.146;2023-05-31T08:16:31;21.83;;;11.90;;
29908;SDS011;36247;51.952;6.146;2023-05-31T08:18:58;23.30;;;11.07;;
29908;SDS011;36247;51.952;6.146;2023-05-31T08:21:23;20.92;;;11.73;;
29908;SDS011;36247;51.952;6.146;2023-05-31T08:23:49;23.00;;;11.23;;
29908;SDS011;36247;51.952;6.146;2023-05-31T08:26:15;17.98;;;11.02;;
29908;SDS011;36247;51.952;6.146;2023-05-31T08:28:41;17.23;;;11.27;;
29908;SDS011;36247;51.952;6.146;2023-05-31T08:31:09;19.77;;;11.45;;
29908;SDS011;36247;51.952;6.146;2023-05-31T08:33:35;23.42;;;11.82;;
29908;SDS011;36247;51.952;6.146;2023-05-31T08:36:03;21.30;;;11.60;;
29908;SDS011;36247;51.952;6.146;2023-05-31T08:38:29;21.67;;;10.93;;
29908;SDS011;36247;51.952;6.146;2023-05-31T08:40:57;23.95;;;10.68;;
29908;SDS011;36247;51.952;6.146;2023-05-31T08:43:25;21.65;;;11.35;;
29908;SDS011;36247;51.952;6.146;2023-05-31T08:45:53;19.13;;;11.38;;
29908;SDS011;36247;51.952;6.146;2023-05-31T08:50:45;25.17;;;11.50;;
29908;SDS011;36247;51.952;6.146;2023-05-31T08:53:13;18.50;;;10.05;;
29908;SDS011;36247;51.952;6.146;2023-05-31T08:55:40;16.15;;;9.50;;
29908;SDS011;36247;51.952;6.146;2023-05-31T08:58:09;19.48;;;9.73;;
29908;SDS011;36247;51.952;6.146;2023-05-31T09:00:37;17.65;;;10.02;;
29908;SDS011;36247;51.952;6.146;2023-05-31T09:03:09;16.95;;;9.63;;
29908;SDS011;36247;51.952;6.146;2023-05-31T09:05:35;17.50;;;9.40;;
29908;SDS011;36247;51.952;6.146;2023-05-31T09:08:03;13.48;;;8.70;;
29908;SDS011;36247;51.952;6.146;2023-05-31T09:10:29;19.48;;;10.32;;
29908;SDS011;36247;51.952;6.146;2023-05-31T09:12:55;23.17;;;9.65;;
29908;SDS011;36247;51.952;6.146;2023-05-31T09:15:23;20.15;;;9.27;;
29908;SDS011;36247;51.952;6.146;2023-05-31T09:17:50;13.25;;;7.95;;
29908;SDS011;36247;51.952;6.146;2023-05-31T09:20:17;14.93;;;8.18;;
29908;SDS011;36247;51.952;6.146;2023-05-31T09:22:47;18.83;;;7.95;;
29908;SDS011;36247;51.952;6.146;2023-05-31T09:25:15;16.65;;;8.00;;
29908;SDS011;36247;51.952;6.146;2023-05-31T09:27:41;17.92;;;8.65;;
29908;SDS011;36247;51.952;6.146;2023-05-31T09:30:09;18.63;;;7.88;;
29908;SDS011;36247;51.952;6.146;2023-05-31T09:32:37;13.13;;;7.97;;
29908;SDS011;36247;51.952;6.146;2023-05-31T09:35:16;16.98;;;7.60;;
29908;SDS011;36247;51.952;6.146;2023-05-31T09:37:43;15.35;;;7.15;;
29908;SDS011;36247;51.952;6.146;2023-05-31T09:40:29;14.43;;;7.00;;
29908;SDS011;36247;51.952;6.146;2023-05-31T09:42:56;14.57;;;7.03;;
29908;SDS011;36247;51.952;6.146;2023-05-31T09:45:22;11.00;;;6.20;;
29908;SDS011;36247;51.952;6.146;2023-05-31T09:47:48;13.68;;;6.15;;
29908;SDS011;36247;51.952;6.146;2023-05-31T09:50:17;13.27;;;5.80;;
29908;SDS011;36247;51.952;6.146;2023-05-31T09:52:44;16.25;;;5.80;;
29908;SDS011;36247;51.952;6.146;2023-05-31T09:55:11;10.05;;;5.60;;
29908;SDS011;36247;51.952;6.146;2023-05-31T09:57:39;10.55;;;5.90;;
29908;SDS011;36247;51.952;6.146;2023-05-31T10:00:08;15.15;;;6.15;;
29908;SDS011;36247;51.952;6.146;2023-05-31T10:02:46;14.82;;;6.50;;
29908;SDS011;36247;51.952;6.146;2023-05-31T10:05:16;18.15;;;5.05;;
29908;SDS011;36247;51.952;6.146;2023-05-31T10:07:45;12.63;;;4.68;;
29908;SDS011;36247;51.952;6.146;2023-05-31T10:10:15;20.15;;;6.28;;
29908;SDS011;36247;51.952;6.146;2023-05-31T10:12:49;9.60;;;4.63;;
29908;SDS011;36247;51.952;6.146;2023-05-31T10:15:19;13.10;;;5.32;;
29908;SDS011;36247;51.952;6.146;2023-05-31T10:18:10;11.60;;;5.15;;
29908;SDS011;36247;51.952;6.146;2023-05-31T10:20:39;12.85;;;4.07;;
29908;SDS011;36247;51.952;6.146;2023-05-31T10:23:17;6.93;;;3.88;;
29908;SDS011;36247;51.952;6.146;2023-05-31T10:31:49;8.85;;;3.80;;
29908;SDS011;36247;51.952;6.146;2023-05-31T10:36:41;9.88;;;4.68;;
29908;SDS011;36247;51.952;6.146;2023-05-31T10:39:11;13.40;;;4.30;;
29908;SDS011;36247;51.952;6.146;2023-05-31T10:41:49;11.05;;;4.72;;
29908;SDS011;36247;51.952;6.146;2023-05-31T10:44:25;13.15;;;4.90;;
29908;SDS011;36247;51.952;6.146;2023-05-31T10:47:00;11.50;;;4.65;;
29908;SDS011;36247;51.952;6.146;2023-05-31T10:49:29;9.80;;;4.70;;
29908;SDS011;36247;51.952;6.146;2023-05-31T10:52:08;12.43;;;4.00;;
29908;SDS011;36247;51.952;6.146;2023-05-31T10:54:35;7.07;;;3.95;;
29908;SDS011;36247;51.952;6.146;2023-05-31T10:57:02;13.20;;;4.18;;
29908;SDS011;36247;51.952;6.146;2023-05-31T10:59:41;10.48;;;3.90;;
29908;SDS011;36247;51.952;6.146;2023-05-31T11:02:10;13.15;;;4.32;;
29908;SDS011;36247;51.952;6.146;2023-05-31T11:04:38;9.57;;;4.18;;
29908;SDS011;36247;51.952;6.146;2023-05-31T11:07:14;11.93;;;3.90;;
29908;SDS011;36247;51.952;6.146;2023-05-31T11:09:59;9.40;;;3.95;;
29908;SDS011;36247;51.952;6.146;2023-05-31T11:13:02;11.75;;;4.00;;
29908;SDS011;36247;51.952;6.146;2023-05-31T11:15:17;14.30;;;3.88;;
29908;SDS011;36247;51.952;6.146;2023-05-31T11:20:47;12.85;;;4.43;;
29908;SDS011;36247;51.952;6.146;2023-05-31T11:25:44;12.15;;;4.35;;
29908;SDS011;36247;51.952;6.146;2023-05-31T11:28:30;8.75;;;4.10;;
29908;SDS011;36247;51.952;6.146;2023-05-31T11:30:56;11.65;;;4.18;;
29908;SDS011;36247;51.952;6.146;2023-05-31T11:33:22;12.80;;;3.92;;
29908;SDS011;36247;51.952;6.146;2023-05-31T11:35:48;8.45;;;3.58;;
29908;SDS011;36247;51.952;6.146;2023-05-31T11:38:14;9.63;;;3.67;;
29908;SDS011;36247;51.952;6.146;2023-05-31T11:40:41;12.95;;;4.40;;
29908;SDS011;36247;51.952;6.146;2023-05-31T11:43:09;9.80;;;3.90;;
29908;SDS011;36247;51.952;6.146;2023-05-31T11:45:39;11.07;;;4.30;;
29908;SDS011;36247;51.952;6.146;2023-05-31T11:50:54;8.60;;;4.25;;
29908;SDS011;36247;51.952;6.146;2023-05-31T11:53:21;11.25;;;4.07;;
29908;SDS011;36247;51.952;6.146;2023-05-31T11:55:46;8.55;;;4.22;;
29908;SDS011;36247;51.952;6.146;2023-05-31T11:58:13;8.45;;;3.70;;
29908;SDS011;36247;51.952;6.146;2023-05-31T12:00:46;13.32;;;4.10;;
29908;SDS011;36247;51.952;6.146;2023-05-31T12:03:16;10.38;;;4.15;;
29908;SDS011;36247;51.952;6.146;2023-05-31T12:05:51;10.80;;;4.13;;
29908;SDS011;36247;51.952;6.146;2023-05-31T12:08:24;11.43;;;4.60;;
29908;SDS011;36247;51.952;6.146;2023-05-31T12:10:51;9.98;;;3.63;;
29908;SDS011;36247;51.952;6.146;2023-05-31T12:13:16;8.77;;;4.20;;
29908;SDS011;36247;51.952;6.146;2023-05-31T12:15:50;10.38;;;4.45;;
29908;SDS011;36247;51.952;6.146;2023-05-31T12:18:18;6.50;;;3.85;;
29908;SDS011;36247;51.952;6.146;2023-05-31T12:20:44;10.95;;;4.50;;
29908;SDS011;36247;51.952;6.146;2023-05-31T12:23:10;9.68;;;4.00;;
29908;SDS011;36247;51.952;6.146;2023-05-31T12:26:00;8.90;;;4.47;;
29908;SDS011;36247;51.952;6.146;2023-05-31T12:28:25;9.02;;;4.50;;
29908;SDS011;36247;51.952;6.146;2023-05-31T12:30:52;9.07;;;3.83;;
29908;SDS011;36247;51.952;6.146;2023-05-31T12:33:19;10.25;;;3.67;;
29908;SDS011;36247;51.952;6.146;2023-05-31T12:35:45;8.05;;;4.00;;
29908;SDS011;36247;51.952;6.146;2023-05-31T12:38:12;7.18;;;4.00;;
29908;SDS011;36247;51.952;6.146;2023-05-31T12:40:42;10.38;;;4.32;;
29908;SDS011;36247;51.952;6.146;2023-05-31T12:43:12;14.27;;;4.40;;
29908;SDS011;36247;51.952;6.146;2023-05-31T12:45:43;12.00;;;4.63;;
29908;SDS011;36247;51.952;6.146;2023-05-31T12:48:09;9.55;;;4.28;;
29908;SDS011;36247;51.952;6.146;2023-05-31T12:50:35;8.90;;;4.45;;
29908;SDS011;36247;51.952;6.146;2023-05-31T12:53:01;7.10;;;3.97;;
29908;SDS011;36247;51.952;6.146;2023-05-31T12:55:31;6.75;;;3.40;;
29908;SDS011;36247;51.952;6.146;2023-05-31T12:57:56;8.30;;;3.90;;
29908;SDS011;36247;51.952;6.146;2023-05-31T13:00:22;8.07;;;4.28;;
29908;SDS011;36247;51.952;6.146;2023-05-31T13:02:48;10.00;;;4.43;;
29908;SDS011;36247;51.952;6.146;2023-05-31T13:05:15;8.52;;;4.97;;
29908;SDS011;36247;51.952;6.146;2023-05-31T13:07:41;10.68;;;4.07;;
29908;SDS011;36247;51.952;6.146;2023-05-31T13:10:09;8.68;;;3.80;;
29908;SDS011;36247;51.952;6.146;2023-05-31T13:12:34;7.20;;;3.63;;
29908;SDS011;36247;51.952;6.146;2023-05-31T13:15:00;7.63;;;4.10;;
29908;SDS011;36247;51.952;6.146;2023-05-31T13:17:26;8.88;;;4.15;;
29908;SDS011;36247;51.952;6.146;2023-05-31T13:19:52;11.55;;;3.90;;
29908;SDS011;36247;51.952;6.146;2023-05-31T13:22:17;8.48;;;3.83;;
29908;SDS011;36247;51.952;6.146;2023-05-31T13:24:44;8.25;;;3.97;;
29908;SDS011;36247;51.952;6.146;2023-05-31T13:27:10;9.43;;;4.25;;
29908;SDS011;36247;51.952;6.146;2023-05-31T13:29:36;12.30;;;4.60;;
29908;SDS011;36247;51.952;6.146;2023-05-31T13:32:04;12.15;;;4.38;;
29908;SDS011;36247;51.952;6.146;2023-05-31T13:34:30;7.80;;;3.63;;
29908;SDS011;36247;51.952;6.146;2023-05-31T13:36:58;8.30;;;3.70;;
29908;SDS011;36247;51.952;6.146;2023-05-31T13:39:24;7.55;;;3.47;;
29908;SDS011;36247;51.952;6.146;2023-05-31T13:41:50;9.27;;;3.85;;
29908;SDS011;36247;51.952;6.146;2023-05-31T13:44:16;8.63;;;3.95;;
29908;SDS011;36247;51.952;6.146;2023-05-31T13:46:42;9.60;;;3.92;;
29908;SDS011;36247;51.952;6.146;2023-05-31T13:49:09;9.15;;;4.55;;
29908;SDS011;36247;51.952;6.146;2023-05-31T13:51:39;10.07;;;3.97;;
29908;SDS011;36247;51.952;6.146;2023-05-31T13:54:04;9.18;;;4.28;;
29908;SDS011;36247;51.952;6.146;2023-05-31T13:56:30;10.38;;;3.75;;
29908;SDS011;36247;51.952;6.146;2023-05-31T13:58:56;7.22;;;3.42;;
29908;SDS011;36247;51.952;6.146;2023-05-31T14:01:23;7.63;;;4.03;;
29908;SDS011;36247;51.952;6.146;2023-05-31T14:03:48;7.53;;;4.30;;
29908;SDS011;36247;51.952;6.146;2023-05-31T14:06:14;12.77;;;4.53;;
29908;SDS011;36247;51.952;6.146;2023-05-31T14:08:40;8.82;;;3.78;;
29908;SDS011;36247;51.952;6.146;2023-05-31T14:11:09;7.97;;;4.13;;
29908;SDS011;36247;51.952;6.146;2023-05-31T14:13:38;7.47;;;4.35;;
29908;SDS011;36247;51.952;6.146;2023-05-31T14:16:04;6.85;;;3.78;;
29908;SDS011;36247;51.952;6.146;2023-05-31T14:18:30;9.88;;;3.72;;
29908;SDS011;36247;51.952;6.146;2023-05-31T14:20:56;9.50;;;4.03;;
29908;SDS011;36247;51.952;6.146;2023-05-31T14:23:21;10.90;;;4.45;;
29908;SDS011;36247;51.952;6.146;2023-05-31T14:25:47;9.07;;;4.35;;
29908;SDS011;36247;51.952;6.146;2023-05-31T14:28:12;7.25;;;3.92;;
29908;SDS011;36247;51.952;6.146;2023-05-31T14:30:38;8.38;;;4.50;;
29908;SDS011;36247;51.952;6.146;2023-05-31T14:33:04;7.45;;;4.13;;
29908;SDS011;36247;51.952;6.146;2023-05-31T14:35:30;6.38;;;3.50;;
29908;SDS011;36247;51.952;6.146;2023-05-31T14:37:55;7.85;;;3.80;;
29908;SDS011;36247;51.952;6.146;2023-05-31T14:40:21;6.55;;;3.75;;
29908;SDS011;36247;51.952;6.146;2023-05-31T14:42:47;6.97;;;3.83;;
29908;SDS011;36247;51.952;6.146;2023-05-31T14:45:12;7.22;;;3.58;;
29908;SDS011;36247;51.952;6.146;2023-05-31T14:47:38;8.15;;;3.80;;
29908;SDS011;36247;51.952;6.146;2023-05-31T14:50:04;11.35;;;4.05;;
29908;SDS011;36247;51.952;6.146;2023-05-31T14:52:29;7.40;;;3.70;;
29908;SDS011;36247;51.952;6.146;2023-05-31T14:54:55;8.15;;;3.67;;
29908;SDS011;36247;51.952;6.146;2023-05-31T14:57:21;6.88;;;4.05;;
29908;SDS011;36247;51.952;6.146;2023-05-31T14:59:47;7.30;;;3.83;;
29908;SDS011;36247;51.952;6.146;2023-05-31T15:02:15;9.40;;;4.10;;
29908;SDS011;36247;51.952;6.146;2023-05-31T15:04:41;9.23;;;4.20;;
29908;SDS011;36247;51.952;6.146;2023-05-31T15:07:09;8.60;;;4.18;;
29908;SDS011;36247;51.952;6.146;2023-05-31T15:09:38;5.72;;;3.65;;